Airfield :







YOU CAN JOIN US ON...

 
LOGIN :

Register | Disclaimer

   EN    FR    IT 

 









Legend :    VFR   Marginal VFR   IFR   Intensive IFR   Very Intensive IFR
Visi :
Ceiling :
>= 8 km
>= 3000ft
5 to 8 km
1000 to 3000 ft
1500m to 5 km
500 to 1000 ft
800 to 1500m
200 to 500 ft
< 800m
< 200 ft
Symbols :   Thunderstorms  Fog  Heavy snow  Heavy precipitations  Wind > 20 kt






- Airport Elevation : 244 ft


KSFM - Sanford Regional

CURRENT METAR :
  • 260241Z AUTO 07012G17KT 1 1/4SM -RA BR OVC005 04/04 A2984 RMK AO2 PNO $

EXPIRED METARs :
  • 260212Z AUTO 07012G21KT 2SM -RA BR OVC005 04/03 A2986 RMK AO2 CIG 003V009 PNO $
  • 260204Z AUTO 07015G24KT 1 1/2SM -RA BR OVC003 04/03 A2986 RMK AO2 CIG 003V008 PRESFR PNO $
  • 260156Z AUTO 08018G24KT 2SM -RA BR OVC003 04/03 A2988 RMK AO2 SLP123 T00390033 PNO $
  • 260116Z AUTO 07010KT 2 1/2SM -RA BR OVC003 04/03 A2994 RMK AO2 VIS 2 1/2V3 PRESFR PNO $
  • 260056Z AUTO 08009G16KT 5SM -RA BR OVC003 04/03 A2998 RMK AO2 SLP156 T00390033 PNO $
  • 252356Z AUTO 08010KT 5SM -RA BR OVC003 03/03 A3003 RMK AO2 RAB29 PRESFR SLP174 6//// T00330028 10039 20028 56031 PNO $

TAF N/A



MET'MAP, your aeronautical weather chart ! - Copyright ORBIFLY December 2007 - Disclaimer

ORBIFLY MET'MAP TEAM :

Programming & Development : Alexandra Zaïnal
Concept & original design : Baudouin d'Aumeries
Assistance for programming : Marc-Olivier Méhu
Technical & hardware support : Manuel Goepfert

Contact : metmap@orbifly.com




SOURCES & CREDITS :

   NOAA